sensor_id;sensor_type;location;lat;lon;timestamp;pressure;altitude;pressure_sealevel;temperature;humidity
14885;BME280;7534;50.762;7.000;2023-09-07T00:00:22;87087.25;;;-143.16;74.48
14885;BME280;7534;50.762;7.000;2023-09-07T00:02:48;87149.81;;;-143.16;74.45
14885;BME280;7534;50.762;7.000;2023-09-07T00:05:14;87147.81;;;-143.16;74.68
14885;BME280;7534;50.762;7.000;2023-09-07T00:07:40;87085.25;;;-143.16;74.93
14885;BME280;7534;50.762;7.000;2023-09-07T00:10:06;87063.06;;;-143.16;75.09
14885;BME280;7534;50.762;7.000;2023-09-07T00:12:31;87123.59;;;-143.16;75.33
14885;BME280;7534;50.762;7.000;2023-09-07T00:14:58;87163.94;;;-143.16;75.45
14885;BME280;7534;50.762;7.000;2023-09-07T00:17:25;87091.31;;;-143.16;75.67
14885;BME280;7534;50.762;7.000;2023-09-07T00:19:51;87184.13;;;-143.16;75.65
14885;BME280;7534;50.762;7.000;2023-09-07T00:22:18;87157.91;;;-143.16;75.72
14885;BME280;7534;50.762;7.000;2023-09-07T00:24:44;87188.16;;;-143.16;75.62
14885;BME280;7534;50.762;7.000;2023-09-07T00:27:10;87260.81;;;-143.16;75.71
14885;BME280;7534;50.762;7.000;2023-09-07T00:29:38;87186.16;;;-143.16;75.53
14885;BME280;7534;50.762;7.000;2023-09-07T00:32:05;87206.34;;;-143.16;76.07
14885;BME280;7534;50.762;7.000;2023-09-07T00:34:30;87200.28;;;-143.16;76.16
14885;BME280;7534;50.762;7.000;2023-09-07T00:36:56;87188.16;;;-143.16;76.10
14885;BME280;7534;50.762;7.000;2023-09-07T00:39:22;87198.25;;;-143.16;76.02
14885;BME280;7534;50.762;7.000;2023-09-07T00:41:48;87216.44;;;-143.16;76.05
14885;BME280;7534;50.762;7.000;2023-09-07T00:44:14;87307.25;;;-143.16;75.90
14885;BME280;7534;50.762;7.000;2023-09-07T00:46:41;87157.91;;;-143.16;75.81
14885;BME280;7534;50.762;7.000;2023-09-07T00:49:07;87220.47;;;-143.16;75.76
14885;BME280;7534;50.762;7.000;2023-09-07T00:51:33;87176.06;;;-143.16;75.71
14885;BME280;7534;50.762;7.000;2023-09-07T00:54:00;87184.13;;;-143.16;75.94
14885;BME280;7534;50.762;7.000;2023-09-07T00:56:26;87206.34;;;-143.16;76.12
14885;BME280;7534;50.762;7.000;2023-09-07T00:58:53;87228.53;;;-143.16;76.20
14885;BME280;7534;50.762;7.000;2023-09-07T01:01:25;87188.16;;;-143.16;76.22
14885;BME280;7534;50.762;7.000;2023-09-07T01:03:51;87228.53;;;-143.16;76.20
14885;BME280;7534;50.762;7.000;2023-09-07T01:06:32;87226.50;;;-143.16;76.38
14885;BME280;7534;50.762;7.000;2023-09-07T01:09:08;87212.38;;;-143.16;76.45
14885;BME280;7534;50.762;7.000;2023-09-07T01:11:37;87206.34;;;-143.16;76.44
14885;BME280;7534;50.762;7.000;2023-09-07T01:14:03;87234.59;;;-143.16;76.32
14885;BME280;7534;50.762;7.000;2023-09-07T01:16:31;87198.25;;;-143.16;76.30
14885;BME280;7534;50.762;7.000;2023-09-07T01:19:00;87192.22;;;-143.16;76.35
14885;BME280;7534;50.762;7.000;2023-09-07T01:21:32;87276.97;;;-143.16;76.80
14885;BME280;7534;50.762;7.000;2023-09-07T01:24:00;87202.28;;;-143.16;77.24
14885;BME280;7534;50.762;7.000;2023-09-07T01:26:26;87244.69;;;-143.16;77.61
14885;BME280;7534;50.762;7.000;2023-09-07T01:28:51;87244.69;;;-143.16;77.33
14885;BME280;7534;50.762;7.000;2023-09-07T01:31:17;87274.94;;;-143.16;77.20
14885;BME280;7534;50.762;7.000;2023-09-07T01:33:43;87270.91;;;-143.16;77.67
14885;BME280;7534;50.762;7.000;2023-09-07T01:36:08;87295.13;;;-143.16;78.20
14885;BME280;7534;50.762;7.000;2023-09-07T01:38:34;87256.78;;;-143.16;77.87
14885;BME280;7534;50.762;7.000;2023-09-07T01:41:00;87252.75;;;-143.16;77.63
14885;BME280;7534;50.762;7.000;2023-09-07T01:43:26;87232.56;;;-143.16;77.58
14885;BME280;7534;50.762;7.000;2023-09-07T01:45:52;87347.59;;;-143.16;77.47
14885;BME280;7534;50.762;7.000;2023-09-07T01:48:18;87214.41;;;-143.16;78.11
14885;BME280;7534;50.762;7.000;2023-09-07T01:50:43;87305.22;;;-143.16;78.86
14885;BME280;7534;50.762;7.000;2023-09-07T01:53:09;87293.13;;;-143.16;78.84
14885;BME280;7534;50.762;7.000;2023-09-07T01:55:35;87339.53;;;-143.16;78.90
14885;BME280;7534;50.762;7.000;2023-09-07T01:58:00;87272.94;;;-143.16;79.39
14885;BME280;7534;50.762;7.000;2023-09-07T02:00:26;87238.63;;;-143.16;78.76
14885;BME280;7534;50.762;7.000;2023-09-07T02:02:52;87276.97;;;-143.16;78.22
14885;BME280;7534;50.762;7.000;2023-09-07T02:05:18;87315.31;;;-143.16;77.72
14885;BME280;7534;50.762;7.000;2023-09-07T02:07:43;87260.81;;;-143.16;77.34
14885;BME280;7534;50.762;7.000;2023-09-07T02:10:12;87242.66;;;-143.16;77.20
14885;BME280;7534;50.762;7.000;2023-09-07T02:12:37;87309.25;;;-143.16;77.14
14885;BME280;7534;50.762;7.000;2023-09-07T02:15:04;87335.50;;;-143.16;77.08
14885;BME280;7534;50.762;7.000;2023-09-07T02:17:30;87337.50;;;-143.16;77.08
14885;BME280;7534;50.762;7.000;2023-09-07T02:19:57;87252.75;;;-143.16;77.48
14885;BME280;7534;50.762;7.000;2023-09-07T02:22:23;87246.69;;;-143.16;77.30
14885;BME280;7534;50.762;7.000;2023-09-07T02:24:49;87333.47;;;-143.16;77.47
14885;BME280;7534;50.762;7.000;2023-09-07T02:27:15;87301.19;;;-143.16;77.46
14885;BME280;7534;50.762;7.000;2023-09-07T02:29:41;87385.94;;;-143.16;77.35
14885;BME280;7534;50.762;7.000;2023-09-07T02:32:08;87278.97;;;-143.16;77.24
14885;BME280;7534;50.762;7.000;2023-09-07T02:34:34;87363.75;;;-143.16;77.43
14885;BME280;7534;50.762;7.000;2023-09-07T02:37:02;87426.31;;;-143.16;77.71
14885;BME280;7534;50.762;7.000;2023-09-07T02:39:29;87285.03;;;-143.16;77.64
14885;BME280;7534;50.762;7.000;2023-09-07T02:41:54;87367.78;;;-143.16;77.60
14885;BME280;7534;50.762;7.000;2023-09-07T02:44:20;87486.84;;;-143.16;77.53
14885;BME280;7534;50.762;7.000;2023-09-07T02:46:46;87363.75;;;-143.16;77.53
14885;BME280;7534;50.762;7.000;2023-09-07T02:49:12;87414.19;;;-143.16;77.76
14885;BME280;7534;50.762;7.000;2023-09-07T02:51:38;87329.44;;;-143.16;77.65
14885;BME280;7534;50.762;7.000;2023-09-07T02:54:14;87426.31;;;-143.16;77.67
14885;BME280;7534;50.762;7.000;2023-09-07T02:56:41;87303.22;;;-143.16;77.68
14885;BME280;7534;50.762;7.000;2023-09-07T02:59:07;87385.94;;;-143.16;77.98
14885;BME280;7534;50.762;7.000;2023-09-07T03:01:34;87392.00;;;-143.16;78.07
14885;BME280;7534;50.762;7.000;2023-09-07T03:03:59;87383.94;;;-143.16;78.15
14885;BME280;7534;50.762;7.000;2023-09-07T03:06:25;87369.81;;;-143.16;78.13
14885;BME280;7534;50.762;7.000;2023-09-07T03:08:51;87438.41;;;-143.16;78.32
14885;BME280;7534;50.762;7.000;2023-09-07T03:11:18;87357.69;;;-143.16;78.30
14885;BME280;7534;50.762;7.000;2023-09-07T03:13:44;87418.25;;;-143.16;78.24
14885;BME280;7534;50.762;7.000;2023-09-07T03:16:11;87404.13;;;-143.16;78.37
14885;BME280;7534;50.762;7.000;2023-09-07T03:18:36;87553.47;;;-143.16;78.36
14885;BME280;7534;50.762;7.000;2023-09-07T03:21:03;87420.25;;;-143.16;78.61
14885;BME280;7534;50.762;7.000;2023-09-07T03:23:31;87438.41;;;-143.16;78.83
14885;BME280;7534;50.762;7.000;2023-09-07T03:25:58;87442.47;;;-143.16;78.87
14885;BME280;7534;50.762;7.000;2023-09-07T03:28:24;87466.69;;;-143.16;78.94
14885;BME280;7534;50.762;7.000;2023-09-07T03:30:51;87402.09;;;-143.16;79.00
14885;BME280;7534;50.762;7.000;2023-09-07T03:33:17;87462.63;;;-143.16;78.92
14885;BME280;7534;50.762;7.000;2023-09-07T03:35:43;87476.75;;;-143.16;78.81
14885;BME280;7534;50.762;7.000;2023-09-07T03:38:09;87458.59;;;-143.16;79.02
14885;BME280;7534;50.762;7.000;2023-09-07T03:40:34;87458.59;;;-143.16;79.01
14885;BME280;7534;50.762;7.000;2023-09-07T03:43:00;87448.50;;;-143.16;79.21
14885;BME280;7534;50.762;7.000;2023-09-07T03:45:26;87456.59;;;-143.16;79.39
14885;BME280;7534;50.762;7.000;2023-09-07T03:47:51;87567.59;;;-143.16;79.42
14885;BME280;7534;50.762;7.000;2023-09-07T03:50:17;87462.63;;;-143.16;79.83
14885;BME280;7534;50.762;7.000;2023-09-07T03:52:43;87505.03;;;-143.16;79.86
14885;BME280;7534;50.762;7.000;2023-09-07T03:55:09;87456.59;;;-143.16;79.75
14885;BME280;7534;50.762;7.000;2023-09-07T03:57:34;87458.59;;;-143.16;79.79
14885;BME280;7534;50.762;7.000;2023-09-07T04:00:00;87501.00;;;-143.16;79.88
14885;BME280;7534;50.762;7.000;2023-09-07T04:02:26;87498.97;;;-143.16;80.00
14885;BME280;7534;50.762;7.000;2023-09-07T04:04:54;87478.78;;;-143.16;79.98
14885;BME280;7534;50.762;7.000;2023-09-07T04:07:20;87503.00;;;-143.16;80.18
14885;BME280;7534;50.762;7.000;2023-09-07T04:09:46;87533.28;;;-143.16;80.35
14885;BME280;7534;50.762;7.000;2023-09-07T04:12:13;87543.38;;;-143.16;80.41
14885;BME280;7534;50.762;7.000;2023-09-07T04:14:39;87511.06;;;-143.16;80.38
14885;BME280;7534;50.762;7.000;2023-09-07T04:17:05;87490.91;;;-143.16;80.64
14885;BME280;7534;50.762;7.000;2023-09-07T04:19:31;87476.75;;;-143.16;80.69
14885;BME280;7534;50.762;7.000;2023-09-07T04:21:57;87513.09;;;-143.16;80.67
14885;BME280;7534;50.762;7.000;2023-09-07T04:24:24;87517.13;;;-143.16;80.77
14885;BME280;7534;50.762;7.000;2023-09-07T04:26:49;87462.63;;;-143.16;80.85
14885;BME280;7534;50.762;7.000;2023-09-07T04:29:16;87496.94;;;-143.16;80.98
14885;BME280;7534;50.762;7.000;2023-09-07T04:31:42;87486.84;;;-143.16;80.98
14885;BME280;7534;50.762;7.000;2023-09-07T04:34:07;87442.47;;;-143.16;80.95
14885;BME280;7534;50.762;7.000;2023-09-07T04:36:33;87547.41;;;-143.16;81.04
14885;BME280;7534;50.762;7.000;2023-09-07T04:38:59;87525.22;;;-143.16;81.24
14885;BME280;7534;50.762;7.000;2023-09-07T04:41:25;87559.53;;;-143.16;81.44
14885;BME280;7534;50.762;7.000;2023-09-07T04:43:51;87543.38;;;-143.16;81.78
14885;BME280;7534;50.762;7.000;2023-09-07T04:46:16;87628.13;;;-143.16;82.58
14885;BME280;7534;50.762;7.000;2023-09-07T04:48:42;87579.69;;;-143.16;83.33
14885;BME280;7534;50.762;7.000;2023-09-07T04:51:10;87464.66;;;-143.16;84.38
14885;BME280;7534;50.762;7.000;2023-09-07T04:53:38;87480.81;;;-143.16;85.29
14885;BME280;7534;50.762;7.000;2023-09-07T04:56:07;87525.22;;;-143.16;86.13
14885;BME280;7534;50.762;7.000;2023-09-07T04:58:34;87549.44;;;-143.16;86.80
14885;BME280;7534;50.762;7.000;2023-09-07T05:01:08;87507.03;;;-143.16;87.37
14885;BME280;7534;50.762;7.000;2023-09-07T05:03:35;87597.88;;;-143.16;87.69
14885;BME280;7534;50.762;7.000;2023-09-07T05:06:02;87498.97;;;-143.16;87.24
14885;BME280;7534;50.762;7.000;2023-09-07T05:08:31;87509.06;;;-143.16;87.84
14885;BME280;7534;50.762;7.000;2023-09-07T05:11:00;87458.59;;;-143.16;88.25
14885;BME280;7534;50.762;7.000;2023-09-07T05:13:26;87503.00;;;-143.16;88.31
14885;BME280;7534;50.762;7.000;2023-09-07T05:15:54;87462.63;;;-143.16;87.58
14885;BME280;7534;50.762;7.000;2023-09-07T05:18:20;87464.66;;;-143.16;86.78
14885;BME280;7534;50.762;7.000;2023-09-07T05:20:46;87416.22;;;-143.16;86.34
14885;BME280;7534;50.762;7.000;2023-09-07T05:23:20;87440.44;;;-143.16;86.60
14885;BME280;7534;50.762;7.000;2023-09-07T05:25:51;87454.56;;;-143.16;87.36
14885;BME280;7534;50.762;7.000;2023-09-07T05:28:22;87460.63;;;-143.16;87.25
14885;BME280;7534;50.762;7.000;2023-09-07T05:30:48;87412.19;;;-143.16;87.05
14885;BME280;7534;50.762;7.000;2023-09-07T05:33:16;87418.25;;;-143.16;85.44
14885;BME280;7534;50.762;7.000;2023-09-07T05:35:42;87367.78;;;-143.16;84.54
14885;BME280;7534;50.762;7.000;2023-09-07T05:38:09;87365.75;;;-143.16;84.74
14885;BME280;7534;50.762;7.000;2023-09-07T05:40:39;87353.66;;;-143.16;85.27
14885;BME280;7534;50.762;7.000;2023-09-07T05:43:06;87343.56;;;-143.16;84.65
14885;BME280;7534;50.762;7.000;2023-09-07T05:45:40;87339.53;;;-143.16;84.17
14885;BME280;7534;50.762;7.000;2023-09-07T05:48:07;87345.59;;;-143.16;83.78
14885;BME280;7534;50.762;7.000;2023-09-07T05:50:36;87357.69;;;-143.16;83.47
14885;BME280;7534;50.762;7.000;2023-09-07T05:53:02;87305.22;;;-143.16;83.01
14885;BME280;7534;50.762;7.000;2023-09-07T05:55:29;87291.09;;;-143.16;82.17
14885;BME280;7534;50.762;7.000;2023-09-07T05:57:56;87353.66;;;-143.16;81.72
14885;BME280;7534;50.762;7.000;2023-09-07T06:00:22;87281.00;;;-143.16;81.47
14885;BME280;7534;50.762;7.000;2023-09-07T06:02:49;87291.09;;;-143.16;80.67
14885;BME280;7534;50.762;7.000;2023-09-07T06:05:16;87264.84;;;-143.16;80.88
14885;BME280;7534;50.762;7.000;2023-09-07T06:07:43;87210.38;;;-143.16;81.09
14885;BME280;7534;50.762;7.000;2023-09-07T06:10:09;87192.22;;;-143.16;80.88
14885;BME280;7534;50.762;7.000;2023-09-07T06:12:35;87210.38;;;-143.16;81.11
14885;BME280;7534;50.762;7.000;2023-09-07T06:15:01;87133.69;;;-143.16;80.91
14885;BME280;7534;50.762;7.000;2023-09-07T06:17:27;87111.47;;;-143.16;80.36
14885;BME280;7534;50.762;7.000;2023-09-07T06:19:54;87270.91;;;-143.16;80.91
14885;BME280;7534;50.762;7.000;2023-09-07T06:22:20;87151.84;;;-143.16;81.10
14885;BME280;7534;50.762;7.000;2023-09-07T06:24:46;87063.06;;;-143.16;80.41
14885;BME280;7534;50.762;7.000;2023-09-07T06:27:11;87036.81;;;-143.16;80.13
14885;BME280;7534;50.762;7.000;2023-09-07T06:29:37;86970.22;;;-143.16;79.91
14885;BME280;7534;50.762;7.000;2023-09-07T06:32:03;86782.56;;;-143.16;78.94
14885;BME280;7534;50.762;7.000;2023-09-07T06:34:29;86697.81;;;-143.16;75.45
14885;BME280;7534;50.762;7.000;2023-09-07T06:36:55;86278.13;;;-143.16;67.44
14885;BME280;7534;50.762;7.000;2023-09-07T06:39:21;85836.31;;;-143.16;59.97
14885;BME280;7534;50.762;7.000;2023-09-07T06:41:47;85400.63;;;-143.16;49.35
14885;BME280;7534;50.762;7.000;2023-09-07T06:44:13;84950.84;;;-143.16;41.41
14885;BME280;7534;50.762;7.000;2023-09-07T06:46:40;84577.75;;;-143.16;37.48
14885;BME280;7534;50.762;7.000;2023-09-07T06:49:06;84396.28;;;-143.16;35.56
14885;BME280;7534;50.762;7.000;2023-09-07T06:51:32;84182.53;;;-143.16;33.45
14885;BME280;7534;50.762;7.000;2023-09-07T06:53:58;83843.81;;;-143.16;31.56
14885;BME280;7534;50.762;7.000;2023-09-07T06:56:24;83753.09;;;-143.16;30.70
14885;BME280;7534;50.762;7.000;2023-09-07T06:58:51;83553.50;;;-143.16;29.84
14885;BME280;7534;50.762;7.000;2023-09-07T07:01:17;83420.44;;;-143.16;28.79
14885;BME280;7534;50.762;7.000;2023-09-07T07:03:42;83241.03;;;-143.16;28.14
14885;BME280;7534;50.762;7.000;2023-09-07T07:06:08;83003.19;;;-143.16;27.34
14885;BME280;7534;50.762;7.000;2023-09-07T07:08:34;82747.22;;;-143.16;26.80
14885;BME280;7534;50.762;7.000;2023-09-07T07:11:00;82507.38;;;-143.16;26.05
14885;BME280;7534;50.762;7.000;2023-09-07T07:13:26;82392.50;;;-143.16;25.93
14885;BME280;7534;50.762;7.000;2023-09-07T07:15:53;82011.66;;;-143.16;25.27
14885;BME280;7534;50.762;7.000;2023-09-07T07:18:19;81850.44;;;-143.16;24.68
14885;BME280;7534;50.762;7.000;2023-09-07T07:20:46;81999.56;;;-143.16;24.76
14885;BME280;7534;50.762;7.000;2023-09-07T07:23:12;82148.66;;;-143.16;24.96
14885;BME280;7534;50.762;7.000;2023-09-07T07:25:38;82448.94;;;-143.16;25.54
14885;BME280;7534;50.762;7.000;2023-09-07T07:28:05;82517.47;;;-143.16;25.56
14885;BME280;7534;50.762;7.000;2023-09-07T07:30:33;82688.75;;;-143.16;25.87
14885;BME280;7534;50.762;7.000;2023-09-07T07:32:59;82575.91;;;-143.16;25.64
14885;BME280;7534;50.762;7.000;2023-09-07T07:35:25;82394.53;;;-143.16;25.29
14885;BME280;7534;50.762;7.000;2023-09-07T07:37:52;82209.13;;;-143.16;24.95
14885;BME280;7534;50.762;7.000;2023-09-07T07:40:18;82136.56;;;-143.16;24.89
14885;BME280;7534;50.762;7.000;2023-09-07T07:42:46;81975.38;;;-143.16;24.49
14885;BME280;7534;50.762;7.000;2023-09-07T07:45:13;82388.47;;;-143.16;25.08
14885;BME280;7534;50.762;7.000;2023-09-07T07:47:41;82368.31;;;-143.16;25.13
14885;BME280;7534;50.762;7.000;2023-09-07T07:50:07;82753.25;;;-143.16;25.86
14885;BME280;7534;50.762;7.000;2023-09-07T07:52:33;82585.97;;;-143.16;25.70
14885;BME280;7534;50.762;7.000;2023-09-07T07:54:59;83043.50;;;-143.16;26.34
14885;BME280;7534;50.762;7.000;2023-09-07T07:57:25;83305.56;;;-143.16;27.17
14885;BME280;7534;50.762;7.000;2023-09-07T07:59:51;83331.75;;;-143.16;27.16
14885;BME280;7534;50.762;7.000;2023-09-07T08:02:16;83343.84;;;-143.16;27.45
14885;BME280;7534;50.762;7.000;2023-09-07T08:04:42;83130.19;;;-143.16;26.93
14885;BME280;7534;50.762;7.000;2023-09-07T08:07:08;83420.44;;;-143.16;27.54
14885;BME280;7534;50.762;7.000;2023-09-07T08:09:34;83253.13;;;-143.16;27.04
14885;BME280;7534;50.762;7.000;2023-09-07T08:12:01;83216.84;;;-143.16;27.14
14885;BME280;7534;50.762;7.000;2023-09-07T08:14:29;83130.19;;;-143.16;26.81
14885;BME280;7534;50.762;7.000;2023-09-07T08:16:57;83392.22;;;-143.16;27.31
14885;BME280;7534;50.762;7.000;2023-09-07T08:19:23;83448.69;;;-143.16;27.62
14885;BME280;7534;50.762;7.000;2023-09-07T08:21:53;83315.63;;;-143.16;27.36
14885;BME280;7534;50.762;7.000;2023-09-07T08:24:18;83023.34;;;-143.16;26.98
14885;BME280;7534;50.762;7.000;2023-09-07T08:26:44;82823.81;;;-143.16;25.81
14885;BME280;7534;50.762;7.000;2023-09-07T08:29:10;82829.84;;;-143.16;25.92
14885;BME280;7534;50.762;7.000;2023-09-07T08:31:37;83190.66;;;-143.16;26.55
14885;BME280;7534;50.762;7.000;2023-09-07T08:34:06;83093.91;;;-143.16;26.65
14885;BME280;7534;50.762;7.000;2023-09-07T08:36:32;83059.63;;;-143.16;26.60
14885;BME280;7534;50.762;7.000;2023-09-07T08:39:00;83396.25;;;-143.16;26.99
14885;BME280;7534;50.762;7.000;2023-09-07T08:41:32;83892.19;;;-143.16;28.57
14885;BME280;7534;50.762;7.000;2023-09-07T08:44:06;83553.50;;;-143.16;27.86
14885;BME280;7534;50.762;7.000;2023-09-07T08:46:32;83607.94;;;-143.16;28.07
14885;BME280;7534;50.762;7.000;2023-09-07T08:49:00;83605.91;;;-143.16;27.79
14885;BME280;7534;50.762;7.000;2023-09-07T08:51:27;83743.00;;;-143.16;28.55
14885;BME280;7534;50.762;7.000;2023-09-07T08:54:00;83956.72;;;-143.16;28.82
14885;BME280;7534;50.762;7.000;2023-09-07T08:56:26;83914.38;;;-143.16;29.00
14885;BME280;7534;50.762;7.000;2023-09-07T08:58:52;83741.00;;;-143.16;28.32
14885;BME280;7534;50.762;7.000;2023-09-07T09:01:18;83791.41;;;-143.16;28.63
14885;BME280;7534;50.762;7.000;2023-09-07T09:03:51;83741.00;;;-143.16;28.31
14885;BME280;7534;50.762;7.000;2023-09-07T09:06:20;83388.19;;;-143.16;27.66
14885;BME280;7534;50.762;7.000;2023-09-07T09:08:55;83317.66;;;-143.16;27.43
14885;BME280;7534;50.762;7.000;2023-09-07T09:11:23;83480.94;;;-143.16;27.71
14885;BME280;7534;50.762;7.000;2023-09-07T09:13:52;83154.38;;;-143.16;26.62
14885;BME280;7534;50.762;7.000;2023-09-07T09:16:18;82922.56;;;-143.16;26.26
14885;BME280;7534;50.762;7.000;2023-09-07T09:18:51;82829.84;;;-143.16;26.08
14885;BME280;7534;50.762;7.000;2023-09-07T09:21:23;83239.03;;;-143.16;26.64
14885;BME280;7534;50.762;7.000;2023-09-07T09:23:52;83597.84;;;-143.16;27.92
14885;BME280;7534;50.762;7.000;2023-09-07T09:26:19;83309.59;;;-143.16;27.14
14885;BME280;7534;50.762;7.000;2023-09-07T09:28:45;83319.66;;;-143.16;27.06
14885;BME280;7534;50.762;7.000;2023-09-07T09:31:13;83408.34;;;-143.16;27.20
14885;BME280;7534;50.762;7.000;2023-09-07T09:33:41;83146.31;;;-143.16;26.73
14885;BME280;7534;50.762;7.000;2023-09-07T09:36:08;83339.81;;;-143.16;27.46
14885;BME280;7534;50.762;7.000;2023-09-07T09:38:35;82914.50;;;-143.16;26.23
14885;BME280;7534;50.762;7.000;2023-09-07T09:41:03;82767.38;;;-143.16;26.12
14885;BME280;7534;50.762;7.000;2023-09-07T09:43:30;82940.72;;;-143.16;26.13
14885;BME280;7534;50.762;7.000;2023-09-07T09:45:59;82985.06;;;-143.16;26.76
14885;BME280;7534;50.762;7.000;2023-09-07T09:48:27;83059.63;;;-143.16;26.45
14885;BME280;7534;50.762;7.000;2023-09-07T09:50:53;82964.91;;;-143.16;26.43
14885;BME280;7534;50.762;7.000;2023-09-07T09:53:20;83033.44;;;-143.16;26.37
14885;BME280;7534;50.762;7.000;2023-09-07T09:55:50;83027.38;;;-143.16;26.48
14885;BME280;7534;50.762;7.000;2023-09-07T09:58:20;83079.78;;;-143.16;26.69
14885;BME280;7534;50.762;7.000;2023-09-07T10:00:50;83073.75;;;-143.16;26.79
14885;BME280;7534;50.762;7.000;2023-09-07T10:03:30;83182.59;;;-143.16;27.06
14885;BME280;7534;50.762;7.000;2023-09-07T10:06:24;83428.53;;;-143.16;27.49
14885;BME280;7534;50.762;7.000;2023-09-07T10:09:01;83426.50;;;-143.16;27.67
14885;BME280;7534;50.762;7.000;2023-09-07T10:11:33;83577.69;;;-143.16;28.26
14885;BME280;7534;50.762;7.000;2023-09-07T10:14:07;83616.00;;;-143.16;28.51
14885;BME280;7534;50.762;7.000;2023-09-07T10:16:48;83706.72;;;-143.16;29.08
14885;BME280;7534;50.762;7.000;2023-09-07T10:19:22;83964.78;;;-143.16;29.65
14885;BME280;7534;50.762;7.000;2023-09-07T10:21:50;83924.47;;;-143.16;29.88
14885;BME280;7534;50.762;7.000;2023-09-07T10:24:30;84065.59;;;-143.16;30.05
14885;BME280;7534;50.762;7.000;2023-09-07T10:27:04;84109.94;;;-143.16;31.03
14885;BME280;7534;50.762;7.000;2023-09-07T10:29:46;84234.97;;;-143.16;31.48
14885;BME280;7534;50.762;7.000;2023-09-07T10:32:13;84206.75;;;-143.16;31.26
14885;BME280;7534;50.762;7.000;2023-09-07T10:34:40;84351.91;;;-143.16;31.80
14885;BME280;7534;50.762;7.000;2023-09-07T10:37:13;84283.34;;;-143.16;31.81
14885;BME280;7534;50.762;7.000;2023-09-07T10:39:41;84434.59;;;-143.16;32.41
14885;BME280;7534;50.762;7.000;2023-09-07T10:42:24;84460.81;;;-143.16;32.66
14885;BME280;7534;50.762;7.000;2023-09-07T10:44:52;84476.94;;;-143.16;32.74
14885;BME280;7534;50.762;7.000;2023-09-07T10:47:18;84474.91;;;-143.16;32.88
14885;BME280;7534;50.762;7.000;2023-09-07T10:49:44;84476.94;;;-143.16;33.16
14885;BME280;7534;50.762;7.000;2023-09-07T10:52:10;84416.44;;;-143.16;33.14
14885;BME280;7534;50.762;7.000;2023-09-07T10:54:36;84485.00;;;-143.16;33.05
14885;BME280;7534;50.762;7.000;2023-09-07T10:57:10;84650.34;;;-143.16;33.73
14885;BME280;7534;50.762;7.000;2023-09-07T10:59:36;84712.88;;;-143.16;33.56
14885;BME280;7534;50.762;7.000;2023-09-07T11:02:05;84549.53;;;-143.16;33.70
14885;BME280;7534;50.762;7.000;2023-09-07T11:04:32;84630.19;;;-143.16;33.63
14885;BME280;7534;50.762;7.000;2023-09-07T11:06:58;84597.94;;;-143.16;33.37
14885;BME280;7534;50.762;7.000;2023-09-07T11:09:24;84531.38;;;-143.16;32.94
14885;BME280;7534;50.762;7.000;2023-09-07T11:11:50;84476.94;;;-143.16;33.41
14885;BME280;7534;50.762;7.000;2023-09-07T11:14:15;84406.34;;;-143.16;33.22
14885;BME280;7534;50.762;7.000;2023-09-07T11:16:41;84416.44;;;-143.16;32.94
14885;BME280;7534;50.762;7.000;2023-09-07T11:19:09;84388.22;;;-143.16;32.54
14885;BME280;7534;50.762;7.000;2023-09-07T11:21:35;84436.59;;;-143.16;32.93
14885;BME280;7534;50.762;7.000;2023-09-07T11:24:02;84327.72;;;-143.16;32.80
14885;BME280;7534;50.762;7.000;2023-09-07T11:26:45;84406.34;;;-143.16;32.98
14885;BME280;7534;50.762;7.000;2023-09-07T11:29:16;84355.94;;;-143.16;32.59
14885;BME280;7534;50.762;7.000;2023-09-07T11:31:43;84438.63;;;-143.16;32.45
14885;BME280;7534;50.762;7.000;2023-09-07T11:34:13;84317.63;;;-143.16;32.16
14885;BME280;7534;50.762;7.000;2023-09-07T11:36:41;84277.31;;;-143.16;32.03
14885;BME280;7534;50.762;7.000;2023-09-07T11:39:08;84259.16;;;-143.16;31.80
14885;BME280;7534;50.762;7.000;2023-09-07T11:41:47;84287.38;;;-143.16;31.75
14885;BME280;7534;50.762;7.000;2023-09-07T11:44:13;84315.63;;;-143.16;31.97
14885;BME280;7534;50.762;7.000;2023-09-07T11:46:39;84382.16;;;-143.16;32.00
14885;BME280;7534;50.762;7.000;2023-09-07T11:49:07;84271.25;;;-143.16;31.90
14885;BME280;7534;50.762;7.000;2023-09-07T11:51:34;84206.75;;;-143.16;31.84
14885;BME280;7534;50.762;7.000;2023-09-07T11:54:02;84174.47;;;-143.16;31.18
14885;BME280;7534;50.762;7.000;2023-09-07T11:56:28;84178.50;;;-143.16;30.96
14885;BME280;7534;50.762;7.000;2023-09-07T11:58:54;84194.63;;;-143.16;30.88
14885;BME280;7534;50.762;7.000;2023-09-07T12:01:21;84055.50;;;-143.16;30.66
14885;BME280;7534;50.762;7.000;2023-09-07T12:03:46;84067.63;;;-143.16;30.34
14885;BME280;7534;50.762;7.000;2023-09-07T12:06:13;84089.78;;;-143.16;30.16
14885;BME280;7534;50.762;7.000;2023-09-07T12:08:42;84083.75;;;-143.16;30.05
14885;BME280;7534;50.762;7.000;2023-09-07T12:11:23;84055.50;;;-143.16;30.20
14885;BME280;7534;50.762;7.000;2023-09-07T12:13:49;84031.31;;;-143.16;29.83
14885;BME280;7534;50.762;7.000;2023-09-07T12:16:14;84087.78;;;-143.16;29.90
14885;BME280;7534;50.762;7.000;2023-09-07T12:18:40;84063.56;;;-143.16;29.86
14885;BME280;7534;50.762;7.000;2023-09-07T12:21:06;84107.94;;;-143.16;29.59
14885;BME280;7534;50.762;7.000;2023-09-07T12:23:32;84089.78;;;-143.16;29.71
14885;BME280;7534;50.762;7.000;2023-09-07T12:25:58;84015.19;;;-143.16;29.93
14885;BME280;7534;50.762;7.000;2023-09-07T12:28:24;83997.03;;;-143.16;29.35
14885;BME280;7534;50.762;7.000;2023-09-07T12:30:50;84013.19;;;-143.16;29.45
14885;BME280;7534;50.762;7.000;2023-09-07T12:33:16;84051.47;;;-143.16;29.37
14885;BME280;7534;50.762;7.000;2023-09-07T12:35:42;84065.59;;;-143.16;29.33
14885;BME280;7534;50.762;7.000;2023-09-07T12:38:07;84001.06;;;-143.16;29.27
14885;BME280;7534;50.762;7.000;2023-09-07T12:40:35;83997.03;;;-143.16;29.45
14885;BME280;7534;50.762;7.000;2023-09-07T12:43:02;83918.41;;;-143.16;29.25
14885;BME280;7534;50.762;7.000;2023-09-07T12:45:28;84003.09;;;-143.16;29.49
14885;BME280;7534;50.762;7.000;2023-09-07T12:47:53;83948.66;;;-143.16;29.45
14885;BME280;7534;50.762;7.000;2023-09-07T12:50:19;83894.22;;;-143.16;29.31